<?xml version="1.0" encoding="UTF-8" standalone="no" ?>
<gpx xmlns="http://www.topografix.com/GPX/1/1" xmlns:xsi="http://www.w3.org/2001/XMLSchema-instance" xsi:schemaLocation="http://www.topografix.com/GPX/1/1 http://www.topografix.com/GPX/1/1/gpx.xsd" version="1.1" creator="VisuGPX - https://www.visugpx.com">
  <metadata>
    <name>Norvège</name>
  </metadata>
  <trk>
    <name><![CDATA[Tour d'Europe: étape 037]]></name>
    <trkseg>
      <trkpt lat="63.11101" lon="7.82971">
        <ele>86.037642</ele>
        <time>2020-08-04T07:14:42.443Z</time>
      </trkpt>
      <trkpt lat="63.10931" lon="7.82435">
        <ele>76.927179</ele>
        <time>2020-08-04T07:15:27.416Z</time>
      </trkpt>
      <trkpt lat="63.10755" lon="7.82328">
        <ele>70.889511</ele>
        <time>2020-08-04T07:16:26.509Z</time>
      </trkpt>
      <trkpt lat="63.10708" lon="7.82816">
        <ele>83.243538</ele>
        <time>2020-08-04T07:17:49.438Z</time>
      </trkpt>
      <trkpt lat="63.10792" lon="7.83267">
        <ele>90.060882</ele>
        <time>2020-08-04T07:19:19.449Z</time>
      </trkpt>
      <trkpt lat="63.1081" lon="7.8379">
        <ele>85.32409</ele>
        <time>2020-08-04T07:20:12.456Z</time>
      </trkpt>
      <trkpt lat="63.10876" lon="7.84359">
        <ele>74.218421</ele>
        <time>2020-08-04T07:20:44.476Z</time>
      </trkpt>
      <trkpt lat="63.10904" lon="7.84895">
        <ele>63.166982</ele>
        <time>2020-08-04T07:21:07.452Z</time>
      </trkpt>
      <trkpt lat="63.10929" lon="7.85508">
        <ele>63.33295</ele>
        <time>2020-08-04T07:21:53.462Z</time>
      </trkpt>
      <trkpt lat="63.11031" lon="7.86043">
        <ele>67.440793</ele>
        <time>2020-08-04T07:22:58.455Z</time>
      </trkpt>
      <trkpt lat="63.11123" lon="7.86604">
        <ele>61.299533</ele>
        <time>2020-08-04T07:23:47.461Z</time>
      </trkpt>
      <trkpt lat="63.11276" lon="7.87448">
        <ele>41.025348</ele>
        <time>2020-08-04T07:32:44.441Z</time>
      </trkpt>
      <trkpt lat="63.1277" lon="7.89964">
        <ele>31.368291</ele>
        <time>2020-08-04T07:39:01.605Z</time>
      </trkpt>
      <trkpt lat="63.12965" lon="7.9029">
        <ele>34.062921</ele>
        <time>2020-08-04T07:39:45.585Z</time>
      </trkpt>
      <trkpt lat="63.13161" lon="7.90572">
        <ele>34.347254</ele>
        <time>2020-08-04T07:40:30.590Z</time>
      </trkpt>
      <trkpt lat="63.13384" lon="7.90809">
        <ele>43.549115</ele>
        <time>2020-08-04T07:41:17.619Z</time>
      </trkpt>
      <trkpt lat="63.13642" lon="7.91029">
        <ele>48.405983</ele>
        <time>2020-08-04T07:42:03.614Z</time>
      </trkpt>
      <trkpt lat="63.13874" lon="7.91216">
        <ele>58.344299</ele>
        <time>2020-08-04T07:42:49.595Z</time>
      </trkpt>
      <trkpt lat="63.14094" lon="7.91404">
        <ele>54.605265</ele>
        <time>2020-08-04T07:43:34.614Z</time>
      </trkpt>
      <trkpt lat="63.14332" lon="7.91593">
        <ele>56.394932</ele>
        <time>2020-08-04T07:44:18.598Z</time>
      </trkpt>
      <trkpt lat="63.14565" lon="7.91771">
        <ele>53.416176</ele>
        <time>2020-08-04T07:45:02.632Z</time>
      </trkpt>
      <trkpt lat="63.14804" lon="7.91957">
        <ele>41.305432</ele>
        <time>2020-08-04T07:45:49.591Z</time>
      </trkpt>
      <trkpt lat="63.14961" lon="7.92372">
        <ele>28.780967</ele>
        <time>2020-08-04T07:46:36.711Z</time>
      </trkpt>
      <trkpt lat="63.15032" lon="7.92879">
        <ele>14.693089</ele>
        <time>2020-08-04T07:47:19.603Z</time>
      </trkpt>
      <trkpt lat="63.15121" lon="7.93413">
        <ele>9.087757</ele>
        <time>2020-08-04T07:48:12.622Z</time>
      </trkpt>
      <trkpt lat="63.15192" lon="7.94047">
        <ele>16.359659</ele>
        <time>2020-08-04T07:49:13.612Z</time>
      </trkpt>
      <trkpt lat="63.15209" lon="7.94668">
        <ele>16.044388</ele>
        <time>2020-08-04T07:50:09.617Z</time>
      </trkpt>
      <trkpt lat="63.15454" lon="7.95693">
        <ele>52.516853</ele>
        <time>2020-08-04T07:55:41.831Z</time>
      </trkpt>
      <trkpt lat="63.15682" lon="7.95553">
        <ele>52.65437</ele>
        <time>2020-08-04T07:56:38.881Z</time>
      </trkpt>
      <trkpt lat="63.15866" lon="7.95301">
        <ele>65.710826</ele>
        <time>2020-08-04T07:58:17.835Z</time>
      </trkpt>
      <trkpt lat="63.16086" lon="7.95086">
        <ele>70.384281</ele>
        <time>2020-08-04T07:59:52.849Z</time>
      </trkpt>
      <trkpt lat="63.16303" lon="7.94786">
        <ele>71.241745</ele>
        <time>2020-08-04T08:00:55.820Z</time>
      </trkpt>
      <trkpt lat="63.16523" lon="7.94577">
        <ele>76.169993</ele>
        <time>2020-08-04T08:02:11.839Z</time>
      </trkpt>
      <trkpt lat="63.16653" lon="7.94054">
        <ele>73.145398</ele>
        <time>2020-08-04T08:03:01.829Z</time>
      </trkpt>
      <trkpt lat="63.16799" lon="7.93677">
        <ele>77.46575</ele>
        <time>2020-08-04T08:04:06.832Z</time>
      </trkpt>
      <trkpt lat="63.17057" lon="7.93626">
        <ele>67.304138</ele>
        <time>2020-08-04T08:04:39.837Z</time>
      </trkpt>
      <trkpt lat="63.17313" lon="7.93514">
        <ele>67.745933</ele>
        <time>2020-08-04T08:05:29.809Z</time>
      </trkpt>
      <trkpt lat="63.17518" lon="7.93706">
        <ele>76.003655</ele>
        <time>2020-08-04T08:06:54.830Z</time>
      </trkpt>
      <trkpt lat="63.17636" lon="7.94173">
        <ele>76.07081</ele>
        <time>2020-08-04T08:10:18.832Z</time>
      </trkpt>
      <trkpt lat="63.178" lon="7.94645">
        <ele>61.507547</ele>
        <time>2020-08-04T08:10:47.838Z</time>
      </trkpt>
      <trkpt lat="63.18012" lon="7.94988">
        <ele>58.193876</ele>
        <time>2020-08-04T08:13:25.832Z</time>
      </trkpt>
      <trkpt lat="63.18108" lon="7.95468">
        <ele>63.176186</ele>
        <time>2020-08-04T08:14:36.837Z</time>
      </trkpt>
      <trkpt lat="63.18281" lon="7.95801">
        <ele>72.163729</ele>
        <time>2020-08-04T08:15:57.832Z</time>
      </trkpt>
      <trkpt lat="63.18424" lon="7.9617">
        <ele>84.33002</ele>
        <time>2020-08-04T08:17:53.839Z</time>
      </trkpt>
      <trkpt lat="63.18576" lon="7.96567">
        <ele>88.828201</ele>
        <time>2020-08-04T08:19:08.859Z</time>
      </trkpt>
      <trkpt lat="63.18665" lon="7.97034">
        <ele>94.385323</ele>
        <time>2020-08-04T08:20:33.822Z</time>
      </trkpt>
      <trkpt lat="63.18699" lon="7.97533">
        <ele>94.048255</ele>
        <time>2020-08-04T08:21:35.851Z</time>
      </trkpt>
      <trkpt lat="63.18849" lon="7.97981">
        <ele>91.649351</ele>
        <time>2020-08-04T08:22:23.855Z</time>
      </trkpt>
      <trkpt lat="63.19029" lon="7.98288">
        <ele>86.206604</ele>
        <time>2020-08-04T08:22:47.862Z</time>
      </trkpt>
      <trkpt lat="63.19208" lon="7.98594">
        <ele>70.935146</ele>
        <time>2020-08-04T08:23:11.874Z</time>
      </trkpt>
      <trkpt lat="63.19406" lon="7.98956">
        <ele>67.161896</ele>
        <time>2020-08-04T08:23:44.852Z</time>
      </trkpt>
      <trkpt lat="63.19533" lon="7.99462">
        <ele>67.868625</ele>
        <time>2020-08-04T08:24:28.841Z</time>
      </trkpt>
      <trkpt lat="63.19667" lon="8.00074">
        <ele>58.996414</ele>
        <time>2020-08-04T08:25:12.817Z</time>
      </trkpt>
      <trkpt lat="63.19815" lon="8.00556">
        <ele>57.155971</ele>
        <time>2020-08-04T08:25:58.820Z</time>
      </trkpt>
      <trkpt lat="63.19895" lon="8.0108">
        <ele>63.00407</ele>
        <time>2020-08-04T08:27:04.839Z</time>
      </trkpt>
      <trkpt lat="63.20023" lon="8.01513">
        <ele>67.779455</ele>
        <time>2020-08-04T08:28:15.878Z</time>
      </trkpt>
      <trkpt lat="63.20072" lon="8.02055">
        <ele>58.884761</ele>
        <time>2020-08-04T08:28:57.831Z</time>
      </trkpt>
      <trkpt lat="63.20176" lon="8.02549">
        <ele>52.353795</ele>
        <time>2020-08-04T08:29:37.826Z</time>
      </trkpt>
      <trkpt lat="63.20269" lon="8.03081">
        <ele>59.35897</ele>
        <time>2020-08-04T08:30:53.825Z</time>
      </trkpt>
      <trkpt lat="63.20377" lon="8.03529">
        <ele>70.036143</ele>
        <time>2020-08-04T08:32:22.863Z</time>
      </trkpt>
      <trkpt lat="63.20513" lon="8.0395">
        <ele>74.135948</ele>
        <time>2020-08-04T08:33:54.839Z</time>
      </trkpt>
      <trkpt lat="63.20668" lon="8.04353">
        <ele>83.382532</ele>
        <time>2020-08-04T08:35:22.856Z</time>
      </trkpt>
      <trkpt lat="63.20808" lon="8.04761">
        <ele>94.301598</ele>
        <time>2020-08-04T08:36:56.841Z</time>
      </trkpt>
      <trkpt lat="63.20982" lon="8.0511">
        <ele>91.69083</ele>
        <time>2020-08-04T08:37:57.859Z</time>
      </trkpt>
      <trkpt lat="63.21139" lon="8.05499">
        <ele>93.42026</ele>
        <time>2020-08-04T08:38:54.843Z</time>
      </trkpt>
      <trkpt lat="63.21252" lon="8.05963">
        <ele>98.979966</ele>
        <time>2020-08-04T08:40:17.847Z</time>
      </trkpt>
      <trkpt lat="63.21362" lon="8.06444">
        <ele>103.795606</ele>
        <time>2020-08-04T08:41:25.855Z</time>
      </trkpt>
      <trkpt lat="63.21462" lon="8.06924">
        <ele>114.405632</ele>
        <time>2020-08-04T08:43:13.861Z</time>
      </trkpt>
      <trkpt lat="63.21549" lon="8.07381">
        <ele>125.608453</ele>
        <time>2020-08-04T08:44:59.846Z</time>
      </trkpt>
      <trkpt lat="63.21656" lon="8.07921">
        <ele>118.497125</ele>
        <time>2020-08-04T08:45:48.854Z</time>
      </trkpt>
      <trkpt lat="63.21748" lon="8.08422">
        <ele>103.997186</ele>
        <time>2020-08-04T08:46:10.835Z</time>
      </trkpt>
      <trkpt lat="63.21842" lon="8.0903">
        <ele>97.375947</ele>
        <time>2020-08-04T08:46:48.847Z</time>
      </trkpt>
      <trkpt lat="63.2199" lon="8.09596">
        <ele>89.328696</ele>
        <time>2020-08-04T08:47:25.852Z</time>
      </trkpt>
      <trkpt lat="63.22127" lon="8.10068">
        <ele>81.39042</ele>
        <time>2020-08-04T08:47:53.861Z</time>
      </trkpt>
      <trkpt lat="63.22335" lon="8.10572">
        <ele>83.282301</ele>
        <time>2020-08-04T08:48:37.854Z</time>
      </trkpt>
      <trkpt lat="63.22481" lon="8.11025">
        <ele>90.657729</ele>
        <time>2020-08-04T08:49:35.836Z</time>
      </trkpt>
      <trkpt lat="63.2258" lon="8.11555">
        <ele>88.245424</ele>
        <time>2020-08-04T08:50:34.841Z</time>
      </trkpt>
      <trkpt lat="63.22563" lon="8.12197">
        <ele>84.16926</ele>
        <time>2020-08-04T08:51:19.851Z</time>
      </trkpt>
      <trkpt lat="63.22513" lon="8.12813">
        <ele>81.297453</ele>
        <time>2020-08-04T08:52:03.829Z</time>
      </trkpt>
      <trkpt lat="63.22349" lon="8.13153">
        <ele>84.932993</ele>
        <time>2020-08-04T08:52:56.867Z</time>
      </trkpt>
      <trkpt lat="63.22124" lon="8.13303">
        <ele>94.587469</ele>
        <time>2020-08-04T08:54:21.845Z</time>
      </trkpt>
      <trkpt lat="63.21913" lon="8.13453">
        <ele>106.259559</ele>
        <time>2020-08-04T08:56:32.852Z</time>
      </trkpt>
      <trkpt lat="63.21926" lon="8.13953">
        <ele>108.966579</ele>
        <time>2020-08-04T08:57:52.832Z</time>
      </trkpt>
      <trkpt lat="63.21698" lon="8.1393">
        <ele>97.968351</ele>
        <time>2020-08-04T08:58:37.823Z</time>
      </trkpt>
      <trkpt lat="63.21456" lon="8.13787">
        <ele>100.41077</ele>
        <time>2020-08-04T08:59:35.843Z</time>
      </trkpt>
      <trkpt lat="63.21198" lon="8.14015">
        <ele>96.550713</ele>
        <time>2020-08-04T09:00:21.846Z</time>
      </trkpt>
      <trkpt lat="63.2097" lon="8.14446">
        <ele>88.893869</ele>
        <time>2020-08-04T09:01:04.856Z</time>
      </trkpt>
      <trkpt lat="63.20691" lon="8.14734">
        <ele>74.57062</ele>
        <time>2020-08-04T09:01:43.840Z</time>
      </trkpt>
      <trkpt lat="63.20602" lon="8.15239">
        <ele>60.899141</ele>
        <time>2020-08-04T09:02:11.839Z</time>
      </trkpt>
      <trkpt lat="63.20663" lon="8.15747">
        <ele>65.82266</ele>
        <time>2020-08-04T09:03:07.858Z</time>
      </trkpt>
      <trkpt lat="63.20805" lon="8.16138">
        <ele>76.604683</ele>
        <time>2020-08-04T09:04:38.884Z</time>
      </trkpt>
      <trkpt lat="63.20961" lon="8.16535">
        <ele>73.523041</ele>
        <time>2020-08-04T09:05:38.862Z</time>
      </trkpt>
      <trkpt lat="63.21083" lon="8.16961">
        <ele>69.862796</ele>
        <time>2020-08-04T09:06:50.864Z</time>
      </trkpt>
      <trkpt lat="63.21108" lon="8.17509">
        <ele>66.096783</ele>
        <time>2020-08-04T09:07:45.832Z</time>
      </trkpt>
      <trkpt lat="63.21253" lon="8.18062">
        <ele>68.855836</ele>
        <time>2020-08-04T09:08:42.847Z</time>
      </trkpt>
      <trkpt lat="63.21399" lon="8.18461">
        <ele>72.29912</ele>
        <time>2020-08-04T09:09:48.847Z</time>
      </trkpt>
      <trkpt lat="63.2149" lon="8.18935">
        <ele>73.031135</ele>
        <time>2020-08-04T09:10:54.833Z</time>
      </trkpt>
      <trkpt lat="63.21599" lon="8.19376">
        <ele>83.055322</ele>
        <time>2020-08-04T09:12:05.838Z</time>
      </trkpt>
      <trkpt lat="63.21773" lon="8.19552">
        <ele>103.175654</ele>
        <time>2020-08-04T09:14:13.881Z</time>
      </trkpt>
      <trkpt lat="63.21883" lon="8.1999">
        <ele>123.524222</ele>
        <time>2020-08-04T09:16:55.831Z</time>
      </trkpt>
      <trkpt lat="63.21974" lon="8.20446">
        <ele>126.897732</ele>
        <time>2020-08-04T09:18:38.853Z</time>
      </trkpt>
      <trkpt lat="63.22073" lon="8.21014">
        <ele>112.821293</ele>
        <time>2020-08-04T09:19:05.853Z</time>
      </trkpt>
      <trkpt lat="63.22315" lon="8.21351">
        <ele>88.074931</ele>
        <time>2020-08-04T09:19:27.872Z</time>
      </trkpt>
      <trkpt lat="63.22564" lon="8.2166">
        <ele>66.756032</ele>
        <time>2020-08-04T09:19:49.834Z</time>
      </trkpt>
      <trkpt lat="63.22671" lon="8.22211">
        <ele>53.669251</ele>
        <time>2020-08-04T09:20:20.880Z</time>
      </trkpt>
      <trkpt lat="63.22728" lon="8.22767">
        <ele>52.414289</ele>
        <time>2020-08-04T09:21:04.868Z</time>
      </trkpt>
      <trkpt lat="63.2279" lon="8.23248">
        <ele>57.385535</ele>
        <time>2020-08-04T09:22:13.858Z</time>
      </trkpt>
      <trkpt lat="63.22735" lon="8.23717">
        <ele>63.369725</ele>
        <time>2020-08-04T09:23:55.884Z</time>
      </trkpt>
      <trkpt lat="63.22689" lon="8.24227">
        <ele>60.890477</ele>
        <time>2020-08-04T09:24:56.857Z</time>
      </trkpt>
      <trkpt lat="63.22786" lon="8.24669">
        <ele>67.095437</ele>
        <time>2020-08-04T09:25:52.843Z</time>
      </trkpt>
      <trkpt lat="63.22924" lon="8.25071">
        <ele>73.820993</ele>
        <time>2020-08-04T09:27:00.842Z</time>
      </trkpt>
      <trkpt lat="63.22988" lon="8.25588">
        <ele>71.837705</ele>
        <time>2020-08-04T09:28:07.841Z</time>
      </trkpt>
      <trkpt lat="63.23096" lon="8.26013">
        <ele>82.387377</ele>
        <time>2020-08-04T09:30:01.848Z</time>
      </trkpt>
      <trkpt lat="63.23209" lon="8.26444">
        <ele>95.989738</ele>
        <time>2020-08-04T09:32:26.877Z</time>
      </trkpt>
      <trkpt lat="63.23386" lon="8.26804">
        <ele>95.666832</ele>
        <time>2020-08-04T09:33:28.856Z</time>
      </trkpt>
      <trkpt lat="63.23592" lon="8.27172">
        <ele>92.085088</ele>
        <time>2020-08-04T09:34:26.840Z</time>
      </trkpt>
      <trkpt lat="63.23812" lon="8.27405">
        <ele>74.969738</ele>
        <time>2020-08-04T09:34:49.852Z</time>
      </trkpt>
      <trkpt lat="63.24034" lon="8.27854">
        <ele>58.968373</ele>
        <time>2020-08-04T09:35:12.890Z</time>
      </trkpt>
      <trkpt lat="63.24183" lon="8.28316">
        <ele>55.588093</ele>
        <time>2020-08-04T09:35:55.850Z</time>
      </trkpt>
      <trkpt lat="63.24401" lon="8.28643">
        <ele>56.232941</ele>
        <time>2020-08-04T09:36:41.837Z</time>
      </trkpt>
      <trkpt lat="63.24567" lon="8.29192">
        <ele>52.390438</ele>
        <time>2020-08-04T09:37:26.851Z</time>
      </trkpt>
      <trkpt lat="63.24643" lon="8.29675">
        <ele>63.455572</ele>
        <time>2020-08-04T09:38:49.847Z</time>
      </trkpt>
      <trkpt lat="63.24755" lon="8.30102">
        <ele>81.263104</ele>
        <time>2020-08-04T09:41:01.852Z</time>
      </trkpt>
      <trkpt lat="63.24857" lon="8.30518">
        <ele>83.39711</ele>
        <time>2020-08-04T09:42:58.843Z</time>
      </trkpt>
      <trkpt lat="63.24954" lon="8.30978">
        <ele>81.980972</ele>
        <time>2020-08-04T09:44:06.856Z</time>
      </trkpt>
      <trkpt lat="63.25123" lon="8.31569">
        <ele>74.279664</ele>
        <time>2020-08-04T09:44:50.853Z</time>
      </trkpt>
      <trkpt lat="63.25294" lon="8.31948">
        <ele>76.74392</ele>
        <time>2020-08-04T09:45:42.849Z</time>
      </trkpt>
      <trkpt lat="63.25373" lon="8.32453">
        <ele>72.791726</ele>
        <time>2020-08-04T09:46:28.851Z</time>
      </trkpt>
      <trkpt lat="63.25345" lon="8.3307">
        <ele>59.157214</ele>
        <time>2020-08-04T09:47:02.901Z</time>
      </trkpt>
      <trkpt lat="63.25505" lon="8.3353">
        <ele>55.541711</ele>
        <time>2020-08-04T09:47:39.864Z</time>
      </trkpt>
      <trkpt lat="63.25563" lon="8.34012">
        <ele>61.770635</ele>
        <time>2020-08-04T09:49:00.894Z</time>
      </trkpt>
      <trkpt lat="63.25665" lon="8.34483">
        <ele>69.685816</ele>
        <time>2020-08-04T09:50:21.858Z</time>
      </trkpt>
      <trkpt lat="63.25679" lon="8.34962">
        <ele>78.198137</ele>
        <time>2020-08-04T09:52:07.855Z</time>
      </trkpt>
      <trkpt lat="63.25688" lon="8.35445">
        <ele>86.404905</ele>
        <time>2020-08-04T09:54:01.843Z</time>
      </trkpt>
      <trkpt lat="63.25764" lon="8.35901">
        <ele>94.091328</ele>
        <time>2020-08-04T09:55:51.883Z</time>
      </trkpt>
      <trkpt lat="63.25746" lon="8.36443">
        <ele>86.60857</ele>
        <time>2020-08-04T09:56:43.856Z</time>
      </trkpt>
      <trkpt lat="63.25786" lon="8.37037">
        <ele>73.838037</ele>
        <time>2020-08-04T09:57:06.851Z</time>
      </trkpt>
      <trkpt lat="63.25899" lon="8.3751">
        <ele>78.330406</ele>
        <time>2020-08-04T09:58:12.851Z</time>
      </trkpt>
      <trkpt lat="63.26057" lon="8.37956">
        <ele>75.785769</ele>
        <time>2020-08-04T09:59:12.904Z</time>
      </trkpt>
      <trkpt lat="63.2602" lon="8.38436">
        <ele>65.625903</ele>
        <time>2020-08-04T10:32:34.864Z</time>
      </trkpt>
      <trkpt lat="63.25994" lon="8.39058">
        <ele>51.52254</ele>
        <time>2020-08-04T10:33:17.862Z</time>
      </trkpt>
      <trkpt lat="63.25965" lon="8.39575">
        <ele>64.19995</ele>
        <time>2020-08-04T10:35:14.874Z</time>
      </trkpt>
      <trkpt lat="63.26054" lon="8.39998">
        <ele>85.708994</ele>
        <time>2020-08-04T10:37:41.870Z</time>
      </trkpt>
      <trkpt lat="63.26096" lon="8.40461">
        <ele>97.012838</ele>
        <time>2020-08-04T10:39:47.874Z</time>
      </trkpt>
      <trkpt lat="63.26162" lon="8.40918">
        <ele>103.624563</ele>
        <time>2020-08-04T10:41:36.854Z</time>
      </trkpt>
      <trkpt lat="63.26237" lon="8.41415">
        <ele>110.560127</ele>
        <time>2020-08-04T10:43:09.866Z</time>
      </trkpt>
      <trkpt lat="63.26303" lon="8.41876">
        <ele>122.448136</ele>
        <time>2020-08-04T10:44:49.863Z</time>
      </trkpt>
      <trkpt lat="63.26345" lon="8.42364">
        <ele>123.314712</ele>
        <time>2020-08-04T10:46:26.863Z</time>
      </trkpt>
      <trkpt lat="63.26414" lon="8.42915">
        <ele>124.682438</ele>
        <time>2020-08-04T10:47:32.866Z</time>
      </trkpt>
      <trkpt lat="63.2644" lon="8.43403">
        <ele>133.002201</ele>
        <time>2020-08-04T10:49:12.863Z</time>
      </trkpt>
      <trkpt lat="63.26438" lon="8.43991">
        <ele>131.740727</ele>
        <time>2020-08-04T10:50:20.870Z</time>
      </trkpt>
      <trkpt lat="63.26412" lon="8.44518">
        <ele>135.949963</ele>
        <time>2020-08-04T10:51:20.855Z</time>
      </trkpt>
      <trkpt lat="63.26314" lon="8.44937">
        <ele>155.521486</ele>
        <time>2020-08-04T10:53:33.886Z</time>
      </trkpt>
      <trkpt lat="63.26188" lon="8.45398">
        <ele>154.298877</ele>
        <time>2020-08-04T10:54:51.871Z</time>
      </trkpt>
      <trkpt lat="63.26035" lon="8.46129">
        <ele>139.022075</ele>
        <time>2020-08-04T10:55:37.893Z</time>
      </trkpt>
      <trkpt lat="63.25866" lon="8.46477">
        <ele>145.852076</ele>
        <time>2020-08-04T10:56:33.867Z</time>
      </trkpt>
      <trkpt lat="63.25667" lon="8.46698">
        <ele>151.016078</ele>
        <time>2020-08-04T10:57:37.901Z</time>
      </trkpt>
      <trkpt lat="63.2555" lon="8.47233">
        <ele>130.459483</ele>
        <time>2020-08-04T10:58:03.895Z</time>
      </trkpt>
      <trkpt lat="63.25296" lon="8.47593">
        <ele>102.262568</ele>
        <time>2020-08-04T10:58:25.853Z</time>
      </trkpt>
      <trkpt lat="63.25029" lon="8.47807">
        <ele>77.583151</ele>
        <time>2020-08-04T10:58:49.862Z</time>
      </trkpt>
      <trkpt lat="63.25026" lon="8.48288">
        <ele>74.814932</ele>
        <time>2020-08-04T11:00:06.895Z</time>
      </trkpt>
      <trkpt lat="63.25092" lon="8.48782">
        <ele>71.89585</ele>
        <time>2020-08-04T11:03:25.886Z</time>
      </trkpt>
      <trkpt lat="63.25253" lon="8.49178">
        <ele>71.375216</ele>
        <time>2020-08-04T11:04:19.874Z</time>
      </trkpt>
      <trkpt lat="63.25491" lon="8.4956">
        <ele>62.965993</ele>
        <time>2020-08-04T11:05:05.874Z</time>
      </trkpt>
      <trkpt lat="63.25704" lon="8.49871">
        <ele>58.878625</ele>
        <time>2020-08-04T11:05:42.878Z</time>
      </trkpt>
      <trkpt lat="63.25973" lon="8.49903">
        <ele>57.683234</ele>
        <time>2020-08-04T11:06:35.859Z</time>
      </trkpt>
      <trkpt lat="63.26224" lon="8.49896">
        <ele>56.62899</ele>
        <time>2020-08-04T11:07:25.854Z</time>
      </trkpt>
      <trkpt lat="63.26518" lon="8.49681">
        <ele>70.520867</ele>
        <time>2020-08-04T11:09:07.892Z</time>
      </trkpt>
      <trkpt lat="63.2704" lon="8.49699">
        <ele>65.391876</ele>
        <time>2020-08-04T11:10:41.861Z</time>
      </trkpt>
      <trkpt lat="63.27255" lon="8.49928">
        <ele>59.154654</ele>
        <time>2020-08-04T11:11:54.881Z</time>
      </trkpt>
      <trkpt lat="63.27491" lon="8.50115">
        <ele>60.780124</ele>
        <time>2020-08-04T11:13:03.900Z</time>
      </trkpt>
      <trkpt lat="63.27633" lon="8.50532">
        <ele>51.869916</ele>
        <time>2020-08-04T11:13:27.859Z</time>
      </trkpt>
      <trkpt lat="63.27693" lon="8.51051">
        <ele>59.761294</ele>
        <time>2020-08-04T11:14:40.870Z</time>
      </trkpt>
      <trkpt lat="63.27817" lon="8.51483">
        <ele>64.061162</ele>
        <time>2020-08-04T11:16:06.878Z</time>
      </trkpt>
      <trkpt lat="63.27971" lon="8.51874">
        <ele>67.700691</ele>
        <time>2020-08-04T11:17:19.878Z</time>
      </trkpt>
      <trkpt lat="63.28033" lon="8.52336">
        <ele>81.011206</ele>
        <time>2020-08-04T11:19:47.872Z</time>
      </trkpt>
      <trkpt lat="63.2798" lon="8.52791">
        <ele>95.893542</ele>
        <time>2020-08-04T11:22:15.858Z</time>
      </trkpt>
      <trkpt lat="63.27941" lon="8.532">
        <ele>102.815162</ele>
        <time>2020-08-04T11:24:25.873Z</time>
      </trkpt>
      <trkpt lat="63.28144" lon="8.53556">
        <ele>94.329579</ele>
        <time>2020-08-04T11:25:00.875Z</time>
      </trkpt>
      <trkpt lat="63.28356" lon="8.53952">
        <ele>74.694293</ele>
        <time>2020-08-04T11:25:22.890Z</time>
      </trkpt>
      <trkpt lat="63.2861" lon="8.54048">
        <ele>52.310575</ele>
        <time>2020-08-04T11:25:44.863Z</time>
      </trkpt>
      <trkpt lat="63.2885" lon="8.53848">
        <ele>48.61631</ele>
        <time>2020-08-04T11:26:23.883Z</time>
      </trkpt>
      <trkpt lat="63.29089" lon="8.5366">
        <ele>54.906487</ele>
        <time>2020-08-04T11:27:23.882Z</time>
      </trkpt>
      <trkpt lat="63.29311" lon="8.53528">
        <ele>63.40598</ele>
        <time>2020-08-04T11:28:42.855Z</time>
      </trkpt>
      <trkpt lat="63.29565" lon="8.53445">
        <ele>56.561904</ele>
        <time>2020-08-04T11:29:25.876Z</time>
      </trkpt>
      <trkpt lat="63.29813" lon="8.53456">
        <ele>55.268766</ele>
        <time>2020-08-04T11:30:26.882Z</time>
      </trkpt>
      <trkpt lat="63.30045" lon="8.53691">
        <ele>53.707139</ele>
        <time>2020-08-04T11:31:04.883Z</time>
      </trkpt>
      <trkpt lat="63.30178" lon="8.54198">
        <ele>55.899647</ele>
        <time>2020-08-04T11:32:00.913Z</time>
      </trkpt>
      <trkpt lat="63.30277" lon="8.5462">
        <ele>72.014168</ele>
        <time>2020-08-04T11:33:56.871Z</time>
      </trkpt>
      <trkpt lat="63.30385" lon="8.55042">
        <ele>78.666066</ele>
        <time>2020-08-04T11:35:24.875Z</time>
      </trkpt>
      <trkpt lat="63.3051" lon="8.55444">
        <ele>86.604086</ele>
        <time>2020-08-04T11:37:11.891Z</time>
      </trkpt>
      <trkpt lat="63.3062" lon="8.55908">
        <ele>86.488413</ele>
        <time>2020-08-04T11:38:34.867Z</time>
      </trkpt>
      <trkpt lat="63.3069" lon="8.56417">
        <ele>92.003136</ele>
        <time>2020-08-04T11:39:47.915Z</time>
      </trkpt>
      <trkpt lat="63.30714" lon="8.56932">
        <ele>93.912751</ele>
        <time>2020-08-04T11:40:46.860Z</time>
      </trkpt>
      <trkpt lat="63.30754" lon="8.57426">
        <ele>90.779223</ele>
        <time>2020-08-04T11:41:31.872Z</time>
      </trkpt>
      <trkpt lat="63.30797" lon="8.57962">
        <ele>95.11826</ele>
        <time>2020-08-04T11:42:32.893Z</time>
      </trkpt>
      <trkpt lat="63.30811" lon="8.58656">
        <ele>86.638172</ele>
        <time>2020-08-04T11:43:18.869Z</time>
      </trkpt>
      <trkpt lat="63.309" lon="8.59077">
        <ele>76.291503</ele>
        <time>2020-08-04T11:43:40.877Z</time>
      </trkpt>
      <trkpt lat="63.30969" lon="8.59569">
        <ele>70.032321</ele>
        <time>2020-08-04T11:44:04.861Z</time>
      </trkpt>
      <trkpt lat="63.31076" lon="8.60079">
        <ele>70.223862</ele>
        <time>2020-08-04T11:44:54.880Z</time>
      </trkpt>
      <trkpt lat="63.31269" lon="8.60478">
        <ele>67.629733</ele>
        <time>2020-08-04T11:45:42.862Z</time>
      </trkpt>
      <trkpt lat="63.31494" lon="8.60586">
        <ele>59.729371</ele>
        <time>2020-08-04T11:46:16.877Z</time>
      </trkpt>
      <trkpt lat="63.3171" lon="8.60422">
        <ele>64.934799</ele>
        <time>2020-08-04T11:47:57.870Z</time>
      </trkpt>
      <trkpt lat="63.31877" lon="8.60474">
        <ele>67.793603</ele>
        <time>2020-08-04T11:49:32.850Z</time>
      </trkpt>
      <trkpt lat="63.31925" lon="8.60948">
        <ele>65.594178</ele>
        <time>2020-08-04T11:50:20.890Z</time>
      </trkpt>
      <trkpt lat="63.32024" lon="8.61477">
        <ele>59.291603</ele>
        <time>2020-08-04T11:51:04.859Z</time>
      </trkpt>
      <trkpt lat="63.32207" lon="8.61916">
        <ele>47.610282</ele>
        <time>2020-08-04T11:51:35.852Z</time>
      </trkpt>
      <trkpt lat="63.32375" lon="8.62363">
        <ele>47.815995</ele>
        <time>2020-08-04T11:52:24.852Z</time>
      </trkpt>
      <trkpt lat="63.32435" lon="8.62877">
        <ele>48.830142</ele>
        <time>2020-08-04T11:53:12.898Z</time>
      </trkpt>
      <trkpt lat="63.32525" lon="8.63356">
        <ele>48.681982</ele>
        <time>2020-08-04T11:53:58.852Z</time>
      </trkpt>
      <trkpt lat="63.32625" lon="8.6383">
        <ele>47.248003</ele>
        <time>2020-08-04T11:54:44.882Z</time>
      </trkpt>
      <trkpt lat="63.32695" lon="8.64315">
        <ele>50.081091</ele>
        <time>2020-08-04T11:55:35.890Z</time>
      </trkpt>
      <trkpt lat="63.32741" lon="8.64812">
        <ele>55.017134</ele>
        <time>2020-08-04T11:56:53.886Z</time>
      </trkpt>
      <trkpt lat="63.32778" lon="8.65334">
        <ele>58.839038</ele>
        <time>2020-08-04T11:57:54.882Z</time>
      </trkpt>
      <trkpt lat="63.32825" lon="8.65846">
        <ele>61.992878</ele>
        <time>2020-08-04T11:59:27.857Z</time>
      </trkpt>
      <trkpt lat="63.32887" lon="8.66394">
        <ele>61.591208</ele>
        <time>2020-08-04T12:00:21.852Z</time>
      </trkpt>
      <trkpt lat="63.32962" lon="8.66906">
        <ele>64.395065</ele>
        <time>2020-08-04T12:01:26.901Z</time>
      </trkpt>
      <trkpt lat="63.33084" lon="8.67353">
        <ele>63.96711</ele>
        <time>2020-08-04T12:02:36.884Z</time>
      </trkpt>
      <trkpt lat="63.3314" lon="8.67948">
        <ele>55.413131</ele>
        <time>2020-08-04T12:03:09.871Z</time>
      </trkpt>
      <trkpt lat="63.3319" lon="8.68554">
        <ele>48.764829</ele>
        <time>2020-08-04T12:03:40.861Z</time>
      </trkpt>
      <trkpt lat="63.333" lon="8.69117">
        <ele>46.995791</ele>
        <time>2020-08-04T12:04:21.877Z</time>
      </trkpt>
      <trkpt lat="63.33447" lon="8.69422">
        <ele>58.434556</ele>
        <time>2020-08-04T12:05:44.870Z</time>
      </trkpt>
      <trkpt lat="63.33646" lon="8.6922">
        <ele>74.276153</ele>
        <time>2020-08-04T12:07:42.880Z</time>
      </trkpt>
      <trkpt lat="63.33877" lon="8.69154">
        <ele>82.358466</ele>
        <time>2020-08-04T12:09:40.880Z</time>
      </trkpt>
      <trkpt lat="63.34082" lon="8.68699">
        <ele>70.158644</ele>
        <time>2020-08-04T12:10:24.880Z</time>
      </trkpt>
      <trkpt lat="63.34333" lon="8.68749">
        <ele>66.724938</ele>
        <time>2020-08-04T12:11:08.876Z</time>
      </trkpt>
      <trkpt lat="63.34551" lon="8.68909">
        <ele>67.021087</ele>
        <time>2020-08-04T12:12:04.885Z</time>
      </trkpt>
      <trkpt lat="63.3471" lon="8.68635">
        <ele>67.324052</ele>
        <time>2020-08-04T12:12:57.898Z</time>
      </trkpt>
      <trkpt lat="63.34951" lon="8.68464">
        <ele>66.823332</ele>
        <time>2020-08-04T12:13:52.889Z</time>
      </trkpt>
      <trkpt lat="63.3518" lon="8.68409">
        <ele>66.854332</ele>
        <time>2020-08-04T12:14:45.875Z</time>
      </trkpt>
      <trkpt lat="63.35449" lon="8.68486">
        <ele>64.860884</ele>
        <time>2020-08-04T12:15:35.879Z</time>
      </trkpt>
      <trkpt lat="63.35679" lon="8.68611">
        <ele>63.070556</ele>
        <time>2020-08-04T12:16:35.869Z</time>
      </trkpt>
      <trkpt lat="63.35779" lon="8.69146">
        <ele>53.420703</ele>
        <time>2020-08-04T12:17:09.876Z</time>
      </trkpt>
      <trkpt lat="63.35872" lon="8.69642">
        <ele>53.205775</ele>
        <time>2020-08-04T12:18:13.870Z</time>
      </trkpt>
      <trkpt lat="63.36029" lon="8.69994">
        <ele>60.946915</ele>
        <time>2020-08-04T12:20:05.907Z</time>
      </trkpt>
      <trkpt lat="63.36186" lon="8.70429">
        <ele>49.157348</ele>
        <time>2020-08-04T12:20:35.911Z</time>
      </trkpt>
      <trkpt lat="63.36371" lon="8.70152">
        <ele>51.816341</ele>
        <time>2020-08-04T12:21:28.883Z</time>
      </trkpt>
      <trkpt lat="63.36589" lon="8.69998">
        <ele>51.256062</ele>
        <time>2020-08-04T12:22:27.900Z</time>
      </trkpt>
      <trkpt lat="63.36748" lon="8.69598">
        <ele>53.727722</ele>
        <time>2020-08-04T12:23:21.895Z</time>
      </trkpt>
      <trkpt lat="63.36891" lon="8.69374">
        <ele>71.174618</ele>
        <time>2020-08-04T12:26:29.880Z</time>
      </trkpt>
      <trkpt lat="63.37089" lon="8.69329">
        <ele>89.706209</ele>
        <time>2020-08-04T12:28:58.867Z</time>
      </trkpt>
      <trkpt lat="63.37254" lon="8.69629">
        <ele>104.342043</ele>
        <time>2020-08-04T12:31:25.884Z</time>
      </trkpt>
      <trkpt lat="63.37437" lon="8.69879">
        <ele>118.00763</ele>
        <time>2020-08-04T12:33:51.893Z</time>
      </trkpt>
      <trkpt lat="63.37644" lon="8.69833">
        <ele>134.9748</ele>
        <time>2020-08-04T12:36:30.885Z</time>
      </trkpt>
      <trkpt lat="63.37857" lon="8.69927">
        <ele>143.15554</ele>
        <time>2020-08-04T12:38:27.893Z</time>
      </trkpt>
      <trkpt lat="63.38099" lon="8.69875">
        <ele>143.037283</ele>
        <time>2020-08-04T12:39:27.890Z</time>
      </trkpt>
      <trkpt lat="63.38351" lon="8.69879">
        <ele>133.654573</ele>
        <time>2020-08-04T12:39:57.910Z</time>
      </trkpt>
      <trkpt lat="63.38631" lon="8.69866">
        <ele>118.751011</ele>
        <time>2020-08-04T12:40:19.904Z</time>
      </trkpt>
      <trkpt lat="63.38829" lon="8.69437">
        <ele>109.574636</ele>
        <time>2020-08-04T12:40:46.870Z</time>
      </trkpt>
      <trkpt lat="63.38994" lon="8.69142">
        <ele>123.628606</ele>
        <time>2020-08-04T12:42:41.884Z</time>
      </trkpt>
      <trkpt lat="63.39229" lon="8.69095">
        <ele>128.545723</ele>
        <time>2020-08-04T12:43:50.899Z</time>
      </trkpt>
      <trkpt lat="63.39413" lon="8.69403">
        <ele>134.733967</ele>
        <time>2020-08-04T12:45:24.895Z</time>
      </trkpt>
      <trkpt lat="63.39544" lon="8.69873">
        <ele>132.816115</ele>
        <time>2020-08-04T12:46:23.872Z</time>
      </trkpt>
      <trkpt lat="63.39719" lon="8.70249">
        <ele>129.57428</ele>
        <time>2020-08-04T12:47:09.883Z</time>
      </trkpt>
      <trkpt lat="63.39953" lon="8.70681">
        <ele>118.282848</ele>
        <time>2020-08-04T12:47:49.892Z</time>
      </trkpt>
      <trkpt lat="63.40191" lon="8.7101">
        <ele>114.212836</ele>
        <time>2020-08-04T12:48:33.869Z</time>
      </trkpt>
      <trkpt lat="63.40422" lon="8.71262">
        <ele>117.445291</ele>
        <time>2020-08-04T12:49:30.881Z</time>
      </trkpt>
      <trkpt lat="63.40667" lon="8.71264">
        <ele>115.612968</ele>
        <time>2020-08-04T12:50:12.906Z</time>
      </trkpt>
      <trkpt lat="63.40951" lon="8.71501">
        <ele>88.875319</ele>
        <time>2020-08-04T12:50:34.924Z</time>
      </trkpt>
      <trkpt lat="63.41163" lon="8.72006">
        <ele>63.317975</ele>
        <time>2020-08-04T12:50:56.876Z</time>
      </trkpt>
      <trkpt lat="63.41115" lon="8.72491">
        <ele>55.800217</ele>
        <time>2020-08-04T12:51:19.889Z</time>
      </trkpt>
      <trkpt lat="63.41142" lon="8.73065">
        <ele>53.527632</ele>
        <time>2020-08-04T12:51:55.900Z</time>
      </trkpt>
      <trkpt lat="63.41207" lon="8.73565">
        <ele>60.170291</ele>
        <time>2020-08-04T12:53:14.869Z</time>
      </trkpt>
      <trkpt lat="63.41298" lon="8.74036">
        <ele>66.850927</ele>
        <time>2020-08-04T12:54:44.873Z</time>
      </trkpt>
      <trkpt lat="63.41468" lon="8.74321">
        <ele>79.90677</ele>
        <time>2020-08-04T12:56:43.883Z</time>
      </trkpt>
      <trkpt lat="63.41593" lon="8.74713">
        <ele>98.043835</ele>
        <time>2020-08-04T12:59:33.876Z</time>
      </trkpt>
      <trkpt lat="63.41748" lon="8.75112">
        <ele>110.874859</ele>
        <time>2020-08-04T13:12:57.872Z</time>
      </trkpt>
      <trkpt lat="63.41926" lon="8.75483">
        <ele>106.540022</ele>
        <time>2020-08-04T13:14:06.884Z</time>
      </trkpt>
      <trkpt lat="63.41963" lon="8.76077">
        <ele>91.940606</ele>
        <time>2020-08-04T13:14:28.905Z</time>
      </trkpt>
      <trkpt lat="63.42102" lon="8.76597">
        <ele>96.426027</ele>
        <time>2020-08-04T13:15:32.880Z</time>
      </trkpt>
      <trkpt lat="63.42211" lon="8.77004">
        <ele>104.925713</ele>
        <time>2020-08-04T13:17:30.869Z</time>
      </trkpt>
      <trkpt lat="63.42262" lon="8.776">
        <ele>91.638886</ele>
        <time>2020-08-04T13:18:06.921Z</time>
      </trkpt>
      <trkpt lat="63.42348" lon="8.7828">
        <ele>69.613306</ele>
        <time>2020-08-04T13:18:28.873Z</time>
      </trkpt>
      <trkpt lat="63.42337" lon="8.78912">
        <ele>56.768616</ele>
        <time>2020-08-04T13:18:50.911Z</time>
      </trkpt>
      <trkpt lat="63.42365" lon="8.79521">
        <ele>58.187857</ele>
        <time>2020-08-04T13:19:31.873Z</time>
      </trkpt>
      <trkpt lat="63.42443" lon="8.79972">
        <ele>68.965369</ele>
        <time>2020-08-04T13:21:15.885Z</time>
      </trkpt>
      <trkpt lat="63.42557" lon="8.80438">
        <ele>71.338862</ele>
        <time>2020-08-04T13:22:23.915Z</time>
      </trkpt>
      <trkpt lat="63.42687" lon="8.81064">
        <ele>59.180253</ele>
        <time>2020-08-04T13:23:05.887Z</time>
      </trkpt>
      <trkpt lat="63.42785" lon="8.81561">
        <ele>54.770357</ele>
        <time>2020-08-04T13:23:33.877Z</time>
      </trkpt>
      <trkpt lat="63.42796" lon="8.8212">
        <ele>59.078516</ele>
        <time>2020-08-04T13:24:34.879Z</time>
      </trkpt>
      <trkpt lat="63.42756" lon="8.82745">
        <ele>53.880731</ele>
        <time>2020-08-04T13:25:18.875Z</time>
      </trkpt>
      <trkpt lat="63.42724" lon="8.83274">
        <ele>60.013773</ele>
        <time>2020-08-04T13:26:25.898Z</time>
      </trkpt>
      <trkpt lat="63.42647" lon="8.83699">
        <ele>62.686039</ele>
        <time>2020-08-04T13:27:47.879Z</time>
      </trkpt>
      <trkpt lat="63.42547" lon="8.84293">
        <ele>54.682653</ele>
        <time>2020-08-04T13:28:33.898Z</time>
      </trkpt>
      <trkpt lat="63.42512" lon="8.8481">
        <ele>61.173626</ele>
        <time>2020-08-04T13:29:46.887Z</time>
      </trkpt>
      <trkpt lat="63.42443" lon="8.85397">
        <ele>54.640489</ele>
        <time>2020-08-04T13:30:36.874Z</time>
      </trkpt>
      <trkpt lat="63.4246" lon="8.85889">
        <ele>59.174599</ele>
        <time>2020-08-04T13:31:39.878Z</time>
      </trkpt>
      <trkpt lat="63.42572" lon="8.86309">
        <ele>66.245945</ele>
        <time>2020-08-04T13:33:05.875Z</time>
      </trkpt>
      <trkpt lat="63.4249" lon="8.86727">
        <ele>76.772471</ele>
        <time>2020-08-04T13:34:50.888Z</time>
      </trkpt>
      <trkpt lat="63.42278" lon="8.86825">
        <ele>82.586512</ele>
        <time>2020-08-04T13:35:54.910Z</time>
      </trkpt>
      <trkpt lat="63.42248" lon="8.87414">
        <ele>76.020132</ele>
        <time>2020-08-04T13:36:48.930Z</time>
      </trkpt>
      <trkpt lat="63.42058" lon="8.87726">
        <ele>65.974091</ele>
        <time>2020-08-04T13:37:32.883Z</time>
      </trkpt>
      <trkpt lat="63.41743" lon="8.87789">
        <ele>60.015328</ele>
        <time>2020-08-04T13:38:18.881Z</time>
      </trkpt>
      <trkpt lat="63.41537" lon="8.87699">
        <ele>74.041211</ele>
        <time>2020-08-04T13:39:43.914Z</time>
      </trkpt>
      <trkpt lat="63.41389" lon="8.87303">
        <ele>81.527043</ele>
        <time>2020-08-04T13:40:55.888Z</time>
      </trkpt>
      <trkpt lat="63.41156" lon="8.87056">
        <ele>73.401816</ele>
        <time>2020-08-04T13:41:55.879Z</time>
      </trkpt>
      <trkpt lat="63.40938" lon="8.87035">
        <ele>71.60337</ele>
        <time>2020-08-04T13:42:41.924Z</time>
      </trkpt>
      <trkpt lat="63.40712" lon="8.87036">
        <ele>69.40972</ele>
        <time>2020-08-04T13:43:29.871Z</time>
      </trkpt>
      <trkpt lat="63.40492" lon="8.87312">
        <ele>69.085145</ele>
        <time>2020-08-04T13:44:29.912Z</time>
      </trkpt>
      <trkpt lat="63.40304" lon="8.8766">
        <ele>72.109313</ele>
        <time>2020-08-04T13:45:27.925Z</time>
      </trkpt>
      <trkpt lat="63.40128" lon="8.87957">
        <ele>71.672573</ele>
        <time>2020-08-04T13:46:15.915Z</time>
      </trkpt>
      <trkpt lat="63.39934" lon="8.8824">
        <ele>78.930244</ele>
        <time>2020-08-04T13:47:41.879Z</time>
      </trkpt>
      <trkpt lat="63.3971" lon="8.88353">
        <ele>89.123659</ele>
        <time>2020-08-04T13:49:40.893Z</time>
      </trkpt>
      <trkpt lat="63.39452" lon="8.88311">
        <ele>79.164427</ele>
        <time>2020-08-04T13:50:17.897Z</time>
      </trkpt>
      <trkpt lat="63.39266" lon="8.8868">
        <ele>73.112003</ele>
        <time>2020-08-04T13:50:54.900Z</time>
      </trkpt>
      <trkpt lat="63.39015" lon="8.8907">
        <ele>65.199175</ele>
        <time>2020-08-04T13:51:53.888Z</time>
      </trkpt>
      <trkpt lat="63.38827" lon="8.89306">
        <ele>75.15231</ele>
        <time>2020-08-04T13:53:33.912Z</time>
      </trkpt>
      <trkpt lat="63.38672" lon="8.89623">
        <ele>94.854425</ele>
        <time>2020-08-04T13:56:07.893Z</time>
      </trkpt>
      <trkpt lat="63.3858" lon="8.90022">
        <ele>111.273686</ele>
        <time>2020-08-04T13:58:42.904Z</time>
      </trkpt>
      <trkpt lat="63.38452" lon="8.90337">
        <ele>122.569255</ele>
        <time>2020-08-04T14:00:42.875Z</time>
      </trkpt>
      <trkpt lat="63.38315" lon="8.90693">
        <ele>135.077282</ele>
        <time>2020-08-04T14:03:02.877Z</time>
      </trkpt>
      <trkpt lat="63.38376" lon="8.91156">
        <ele>140.641407</ele>
        <time>2020-08-04T14:04:43.885Z</time>
      </trkpt>
      <trkpt lat="63.38591" lon="8.91159">
        <ele>144.218723</ele>
        <time>2020-08-04T14:06:12.884Z</time>
      </trkpt>
      <trkpt lat="63.38724" lon="8.91712">
        <ele>138.038443</ele>
        <time>2020-08-04T14:07:00.927Z</time>
      </trkpt>
      <trkpt lat="63.38797" lon="8.92222">
        <ele>134.181839</ele>
        <time>2020-08-04T14:07:58.894Z</time>
      </trkpt>
      <trkpt lat="63.3857" lon="8.92573">
        <ele>125.642813</ele>
        <time>2020-08-04T14:08:30.878Z</time>
      </trkpt>
      <trkpt lat="63.38374" lon="8.92917">
        <ele>123.320833</ele>
        <time>2020-08-04T14:09:20.900Z</time>
      </trkpt>
      <trkpt lat="63.3816" lon="8.9316">
        <ele>118.695736</ele>
        <time>2020-08-04T14:09:55.902Z</time>
      </trkpt>
      <trkpt lat="63.37987" lon="8.93478">
        <ele>99.592155</ele>
        <time>2020-08-04T14:10:17.922Z</time>
      </trkpt>
      <trkpt lat="63.37904" lon="8.93865">
        <ele>90.720114</ele>
        <time>2020-08-04T14:11:14.903Z</time>
      </trkpt>
      <trkpt lat="63.38022" lon="8.94358">
        <ele>91.098313</ele>
        <time>2020-08-04T14:12:08.879Z</time>
      </trkpt>
      <trkpt lat="63.38113" lon="8.94835">
        <ele>96.059672</ele>
        <time>2020-08-04T14:12:53.910Z</time>
      </trkpt>
      <trkpt lat="63.3827" lon="8.95271">
        <ele>98.079103</ele>
        <time>2020-08-04T14:13:37.901Z</time>
      </trkpt>
      <trkpt lat="63.38404" lon="8.95698">
        <ele>104.45495</ele>
        <time>2020-08-04T14:14:50.895Z</time>
      </trkpt>
      <trkpt lat="63.38558" lon="8.9612">
        <ele>99.150039</ele>
        <time>2020-08-04T14:15:34.896Z</time>
      </trkpt>
      <trkpt lat="63.38632" lon="8.96581">
        <ele>92.349918</ele>
        <time>2020-08-04T14:16:20.902Z</time>
      </trkpt>
      <trkpt lat="63.38706" lon="8.97014">
        <ele>92.221679</ele>
        <time>2020-08-04T14:17:13.888Z</time>
      </trkpt>
      <trkpt lat="63.3887" lon="8.97364">
        <ele>90.635857</ele>
        <time>2020-08-04T14:18:01.906Z</time>
      </trkpt>
      <trkpt lat="63.38969" lon="8.97838">
        <ele>84.269871</ele>
        <time>2020-08-04T14:18:46.890Z</time>
      </trkpt>
      <trkpt lat="63.38958" lon="8.98348">
        <ele>86.69108</ele>
        <time>2020-08-04T14:19:41.913Z</time>
      </trkpt>
      <trkpt lat="63.38923" lon="8.98471">
        <ele>87.976796</ele>
        <time>2020-08-04T14:20:32.903Z</time>
      </trkpt>
      <trkpt lat="63.39097" lon="8.98783">
        <ele>77.489814</ele>
        <time>2020-08-04T14:20:56.923Z</time>
      </trkpt>
      <trkpt lat="63.39176" lon="8.99452">
        <ele>64.411585</ele>
        <time>2020-08-04T14:21:39.891Z</time>
      </trkpt>
      <trkpt lat="63.39315" lon="8.99863">
        <ele>57.439989</ele>
        <time>2020-08-04T14:22:23.897Z</time>
      </trkpt>
      <trkpt lat="63.39483" lon="9.00337">
        <ele>55.714124</ele>
        <time>2020-08-04T14:23:09.896Z</time>
      </trkpt>
      <trkpt lat="63.39721" lon="9.00733">
        <ele>50.27718</ele>
        <time>2020-08-04T14:23:53.884Z</time>
      </trkpt>
      <trkpt lat="63.39932" lon="9.00965">
        <ele>50.020707</ele>
        <time>2020-08-04T14:24:37.919Z</time>
      </trkpt>
      <trkpt lat="63.40119" lon="9.00711">
        <ele>62.685595</ele>
        <time>2020-08-04T14:25:58.908Z</time>
      </trkpt>
      <trkpt lat="63.40388" lon="9.00572">
        <ele>62.91253</ele>
        <time>2020-08-04T14:26:50.905Z</time>
      </trkpt>
      <trkpt lat="63.40592" lon="9.00319">
        <ele>60.090593</ele>
        <time>2020-08-04T14:27:53.916Z</time>
      </trkpt>
      <trkpt lat="63.40814" lon="9.00185">
        <ele>60.93552</ele>
        <time>2020-08-04T14:28:57.891Z</time>
      </trkpt>
      <trkpt lat="63.40835" lon="9.00576">
        <ele>74.213636</ele>
        <time>2020-08-04T14:30:20.921Z</time>
      </trkpt>
      <trkpt lat="63.4069" lon="9.01009">
        <ele>83.285397</ele>
        <time>2020-08-04T14:31:17.889Z</time>
      </trkpt>
      <trkpt lat="63.40941" lon="9.00883">
        <ele>64.716673</ele>
        <time>2020-08-04T14:32:00.890Z</time>
      </trkpt>
      <trkpt lat="63.41089" lon="9.01074">
        <ele>65.695217</ele>
        <time>2020-08-04T14:33:28.907Z</time>
      </trkpt>
      <trkpt lat="63.41164" lon="9.01546">
        <ele>70.704239</ele>
        <time>2020-08-04T14:34:53.921Z</time>
      </trkpt>
      <trkpt lat="63.41134" lon="9.02104">
        <ele>75.889057</ele>
        <time>2020-08-04T14:35:44.925Z</time>
      </trkpt>
      <trkpt lat="63.41149" lon="9.02637">
        <ele>81.872998</ele>
        <time>2020-08-04T14:37:05.909Z</time>
      </trkpt>
      <trkpt lat="63.41303" lon="9.02876">
        <ele>68.431288</ele>
        <time>2020-08-04T14:38:02.900Z</time>
      </trkpt>
      <trkpt lat="63.41528" lon="9.0254">
        <ele>65.070829</ele>
        <time>2020-08-04T14:39:09.893Z</time>
      </trkpt>
    </trkseg>
  </trk>
</gpx>